createdAt,value
2023-05-19T00:01:00.447Z,102838.16
2023-05-19T00:03:27.393Z,102839.19
2023-05-19T00:05:54.443Z,102831.50
2023-05-19T00:08:24.544Z,102835.25
2023-05-19T00:10:51.184Z,102831.50
2023-05-19T00:13:17.877Z,102829.81
2023-05-19T00:15:44.628Z,102830.44
2023-05-19T00:18:14.010Z,102830.25
2023-05-19T00:20:40.769Z,102822.13
2023-05-19T00:23:07.251Z,102815.66
2023-05-19T00:25:33.733Z,102810.88
2023-05-19T00:28:00.629Z,102811.09
2023-05-19T00:30:27.317Z,102816.53
2023-05-19T00:32:53.924Z,102813.19
2023-05-19T00:35:20.421Z,102810.69
2023-05-19T00:37:47.089Z,102808.19
2023-05-19T00:40:13.668Z,102810.72
2023-05-19T00:42:41.213Z,102811.75
2023-05-19T00:45:08.227Z,102815.94
2023-05-19T00:47:34.875Z,102813.66
2023-05-19T00:50:01.345Z,102812.00
2023-05-19T00:52:28.217Z,102807.84
2023-05-19T00:54:55.677Z,102807.44
2023-05-19T00:57:22.324Z,102806.63
2023-05-19T00:59:49.069Z,102802.44
2023-05-19T01:02:15.651Z,102809.94
2023-05-19T01:04:44.793Z,102810.38
2023-05-19T01:07:12.505Z,102807.47
2023-05-19T01:09:39.427Z,102805.00
2023-05-19T01:12:06.432Z,102812.25
2023-05-19T01:14:32.978Z,102817.69
2023-05-19T01:17:23.688Z,102813.72
2023-05-19T01:20:02.141Z,102820.41
2023-05-19T01:23:01.012Z,102821.25
2023-05-19T01:26:04.472Z,102814.81
2023-05-19T01:28:48.634Z,102806.25
2023-05-19T01:31:16.884Z,102810.22
2023-05-19T01:33:44.424Z,102805.44
2023-05-19T01:36:12.462Z,102801.69
2023-05-19T01:38:40.044Z,102789.63
2023-05-19T01:41:07.500Z,102797.72
2023-05-19T01:43:35.933Z,102794.41
2023-05-19T01:46:03.271Z,102793.81
2023-05-19T01:48:30.945Z,102792.56
2023-05-19T01:50:57.706Z,102799.03
2023-05-19T01:53:24.670Z,102790.28
2023-05-19T01:55:53.548Z,102795.50
2023-05-19T01:58:42.012Z,102795.69
2023-05-19T02:01:26.851Z,102786.75
2023-05-19T02:03:56.247Z,102783.41
2023-05-19T02:06:38.108Z,102786.31
2023-05-19T02:09:33.159Z,102794.22
2023-05-19T02:12:06.149Z,102792.78
2023-05-19T02:14:45.351Z,102792.97
2023-05-19T02:17:14.683Z,102781.94
2023-05-19T02:19:42.583Z,102791.75
2023-05-19T02:22:09.111Z,102790.91
2023-05-19T02:24:37.583Z,102787.38
2023-05-19T02:27:04.233Z,102780.09
2023-05-19T02:29:30.772Z,102780.09
2023-05-19T02:31:57.280Z,102782.38
2023-05-19T02:34:23.766Z,102770.94
2023-05-19T02:36:50.642Z,102778.41
2023-05-19T02:39:17.199Z,102768.00
2023-05-19T02:41:43.633Z,102773.81
2023-05-19T02:44:10.115Z,102768.22
2023-05-19T02:46:36.591Z,102772.56
2023-05-19T02:49:03.057Z,102762.56
2023-05-19T02:51:29.587Z,102767.34
2023-05-19T02:53:56.070Z,102766.94
2023-05-19T02:56:22.541Z,102765.47
2023-05-19T02:58:49.031Z,102759.44
2023-05-19T03:01:15.873Z,102754.03
2023-05-19T03:03:42.437Z,102755.94
2023-05-19T03:06:09.387Z,102750.72
2023-05-19T03:08:36.431Z,102754.25
2023-05-19T03:11:03.671Z,102752.56
2023-05-19T03:13:30.191Z,102750.50
2023-05-19T03:15:58.749Z,102753.63
2023-05-19T03:18:26.539Z,102751.50
2023-05-19T03:20:56.542Z,102755.88
2023-05-19T03:23:23.133Z,102757.31
2023-05-19T03:25:49.551Z,102752.13
2023-05-19T03:28:17.175Z,102751.69
2023-05-19T03:30:43.619Z,102749.84
2023-05-19T03:33:10.282Z,102755.88
2023-05-19T03:35:36.974Z,102759.63
2023-05-19T03:38:03.478Z,102752.09
2023-05-19T03:40:30.100Z,102756.69
2023-05-19T03:42:56.797Z,102750.88
2023-05-19T03:45:23.338Z,102747.13
2023-05-19T03:47:49.809Z,102750.88
2023-05-19T03:50:16.279Z,102743.81
2023-05-19T03:52:45.465Z,102748.38
2023-05-19T03:55:12.589Z,102755.44
2023-05-19T03:57:39.017Z,102760.63
2023-05-19T04:00:06.268Z,102754.59
2023-05-19T04:02:32.731Z,102754.16
2023-05-19T04:04:59.268Z,102758.09
2023-05-19T04:07:25.820Z,102755.84
2023-05-19T04:09:52.229Z,102761.03
2023-05-19T04:12:18.714Z,102754.41
2023-05-19T04:14:45.168Z,102755.22
2023-05-19T04:17:12.018Z,102755.03
2023-05-19T04:19:38.455Z,102752.50
2023-05-19T04:22:05.059Z,102757.09
2023-05-19T04:24:31.803Z,102758.53
2023-05-19T04:27:02.409Z,102760.22
2023-05-19T04:29:29.547Z,102765.03
2023-05-19T04:31:57.198Z,102765.03
2023-05-19T04:34:23.604Z,102763.75
2023-05-19T04:36:53.115Z,102759.00
2023-05-19T04:39:19.997Z,102761.50
2023-05-19T04:41:46.444Z,102757.53
2023-05-19T04:44:13.556Z,102760.06
2023-05-19T04:46:40.111Z,102750.69
2023-05-19T04:49:06.645Z,102763.78
2023-05-19T04:51:33.102Z,102768.16
2023-05-19T04:53:59.550Z,102766.72
2023-05-19T04:56:27.450Z,102759.22
2023-05-19T04:58:53.975Z,102772.56
2023-05-19T05:01:22.688Z,102766.53
2023-05-19T05:03:49.313Z,102770.47
2023-05-19T05:06:16.351Z,102767.97
2023-05-19T05:08:42.825Z,102762.78
2023-05-19T05:11:09.762Z,102772.16
2023-05-19T05:13:36.390Z,102761.78
2023-05-19T05:16:06.464Z,102765.94
2023-05-19T05:18:33.733Z,102772.19
2023-05-19T05:21:00.713Z,102773.44
2023-05-19T05:23:27.723Z,102769.69
2023-05-19T05:25:54.350Z,102764.25
2023-05-19T05:28:21.019Z,102770.09
2023-05-19T05:30:47.544Z,102778.00
2023-05-19T05:33:14.209Z,102764.06
2023-05-19T05:35:40.918Z,102768.84
2023-05-19T05:38:07.361Z,102771.75
2023-05-19T05:40:33.840Z,102763.84
2023-05-19T05:43:00.266Z,102761.13
2023-05-19T05:45:26.781Z,102772.16
2023-05-19T05:47:53.650Z,102777.75
2023-05-19T05:50:20.404Z,102773.78
2023-05-19T05:52:47.931Z,102777.53
2023-05-19T05:55:17.492Z,102778.34
2023-05-19T05:57:44.093Z,102776.66
2023-05-19T06:00:15.539Z,102776.63
2023-05-19T06:02:47.397Z,102772.47
2023-05-19T06:05:14.132Z,102770.78
2023-05-19T06:07:41.176Z,102776.59
2023-05-19T06:10:09.044Z,102767.84
2023-05-19T06:12:36.126Z,102766.16
2023-05-19T06:15:03.297Z,102775.06
2023-05-19T06:17:29.832Z,102772.53
2023-05-19T06:19:56.298Z,102780.63
2023-05-19T06:22:22.727Z,102772.06
2023-05-19T06:24:49.175Z,102776.84
2023-05-19T06:27:15.721Z,102779.75
2023-05-19T06:29:42.270Z,102770.97
2023-05-19T06:32:08.717Z,102772.19
2023-05-19T06:34:35.616Z,102767.78
2023-05-19T06:37:02.426Z,102768.78
2023-05-19T06:39:28.936Z,102771.44
2023-05-19T06:41:55.441Z,102768.69
2023-05-19T06:44:22.530Z,102768.63
2023-05-19T06:46:49.022Z,102774.03
2023-05-19T06:49:15.664Z,102772.94
2023-05-19T06:51:42.092Z,102763.91
2023-05-19T06:54:11.037Z,102760.56
2023-05-19T06:56:37.500Z,102762.16
2023-05-19T06:59:04.127Z,102766.69
2023-05-19T07:01:31.045Z,102776.22
2023-05-19T07:03:57.748Z,102776.13
2023-05-19T07:06:24.251Z,102774.63
2023-05-19T07:08:50.824Z,102776.44
2023-05-19T07:11:17.762Z,102770.97
2023-05-19T07:13:44.214Z,102764.66
2023-05-19T07:16:10.680Z,102756.66
2023-05-19T07:18:37.222Z,102770.34
2023-05-19T07:21:03.823Z,102763.19
2023-05-19T07:23:30.258Z,102761.44
2023-05-19T07:25:56.914Z,102755.97
2023-05-19T07:28:23.489Z,102758.59
2023-05-19T07:30:49.978Z,102764.56
2023-05-19T07:33:16.482Z,102759.03
2023-05-19T07:35:43.060Z,102768.50
2023-05-19T07:38:09.593Z,102760.03
2023-05-19T07:40:36.094Z,102764.09
2023-05-19T07:43:02.516Z,102764.84
2023-05-19T07:45:28.992Z,102765.56
2023-05-19T07:47:55.531Z,102757.34
2023-05-19T07:50:22.380Z,102756.41
2023-05-19T07:52:48.905Z,102757.38
2023-05-19T07:55:16.528Z,102756.88
2023-05-19T07:57:42.959Z,102748.25
2023-05-19T08:00:11.923Z,102748.38
2023-05-19T08:02:38.449Z,102746.97
2023-05-19T08:05:05.510Z,102738.94
2023-05-19T08:07:31.950Z,102735.16
2023-05-19T08:09:58.408Z,102730.44
2023-05-19T08:12:24.854Z,102737.91
2023-05-19T08:14:52.453Z,102732.91
2023-05-19T08:17:19.175Z,102726.50
2023-05-19T08:19:45.915Z,102736.56
2023-05-19T08:22:12.403Z,102726.59
2023-05-19T08:24:39.295Z,102732.16
2023-05-19T08:27:06.780Z,102724.94
2023-05-19T08:29:33.222Z,102725.59
2023-05-19T08:32:00.336Z,102721.22
2023-05-19T08:34:26.860Z,102715.13
2023-05-19T08:36:53.529Z,102709.19
2023-05-19T08:39:24.201Z,102713.66
2023-05-19T08:41:50.729Z,102719.56
2023-05-19T08:44:18.909Z,102707.69
2023-05-19T08:46:49.974Z,102698.16
2023-05-19T08:49:18.179Z,102704.31
2023-05-19T08:51:56.216Z,102701.50
2023-05-19T08:54:29.296Z,102699.91
2023-05-19T08:56:58.739Z,102698.03
2023-05-19T08:59:25.641Z,102692.09
2023-05-19T09:01:54.883Z,102687.78
2023-05-19T09:04:22.251Z,102687.13
2023-05-19T09:06:50.295Z,102690.75
2023-05-19T09:09:17.328Z,102689.13
2023-05-19T09:11:46.770Z,102682.31
2023-05-19T09:14:13.179Z,102691.41
2023-05-19T09:16:40.294Z,102689.19
2023-05-19T09:19:15.494Z,102684.22
2023-05-19T09:21:42.127Z,102691.41
2023-05-19T09:24:09.875Z,102687.66
2023-05-19T09:26:41.116Z,102678.75
2023-05-19T09:29:15.427Z,102687.31
2023-05-19T09:32:08.565Z,102679.78
2023-05-19T09:34:35.017Z,102677.88
2023-05-19T09:37:01.518Z,102677.13
2023-05-19T09:39:28.817Z,102671.16
2023-05-19T09:41:58.779Z,102675.63
2023-05-19T09:44:30.539Z,102673.81
2023-05-19T09:46:58.608Z,102672.78
2023-05-19T09:49:31.313Z,102668.78
2023-05-19T09:52:07.522Z,102669.94
2023-05-19T09:54:34.446Z,102668.59
2023-05-19T09:57:03.513Z,102666.13
2023-05-19T09:59:33.514Z,102673.75
2023-05-19T10:02:01.319Z,102670.75
2023-05-19T10:04:29.507Z,102669.94
2023-05-19T10:06:59.457Z,102664.78
2023-05-19T10:09:27.966Z,102672.72
2023-05-19T10:11:56.562Z,102659.69
2023-05-19T10:14:32.070Z,102661.94
2023-05-19T10:16:59.694Z,102648.00
2023-05-19T10:19:28.764Z,102660.56
2023-05-19T10:21:56.045Z,102648.94
2023-05-19T10:24:22.533Z,102648.44
2023-05-19T10:26:55.043Z,102646.06
2023-05-19T10:29:29.414Z,102652.66
2023-05-19T10:31:59.123Z,102644.81
2023-05-19T10:34:31.730Z,102644.59
2023-05-19T10:37:31.918Z,102639.44
2023-05-19T10:39:58.827Z,102630.75
2023-05-19T10:42:36.725Z,102632.09
2023-05-19T10:45:20.251Z,102635.13
2023-05-19T10:47:46.866Z,102635.75
2023-05-19T10:50:13.618Z,102628.09
2023-05-19T10:52:40.683Z,102625.38
2023-05-19T10:55:08.754Z,102627.00
2023-05-19T10:57:35.583Z,102623.16
2023-05-19T11:00:27.995Z,102628.63
2023-05-19T11:02:57.900Z,102629.72
2023-05-19T11:05:29.435Z,102629.19
2023-05-19T11:08:05.003Z,102632.81
2023-05-19T11:10:31.946Z,102615.56
2023-05-19T11:12:58.670Z,102621.09
2023-05-19T11:15:28.701Z,102610.22
2023-05-19T11:17:55.635Z,102617.97
2023-05-19T11:20:24.570Z,102621.56
2023-05-19T11:23:06.797Z,102609.53
2023-05-19T11:25:44.215Z,102602.44
2023-05-19T11:28:13.263Z,102596.16
2023-05-19T11:30:42.738Z,102607.13
2023-05-19T11:33:13.742Z,102611.00
2023-05-19T11:35:41.017Z,102599.22
2023-05-19T11:38:07.573Z,102597.03
2023-05-19T11:40:34.073Z,102599.53
2023-05-19T11:43:01.874Z,102598.97
2023-05-19T11:45:31.610Z,102597.31
2023-05-19T11:48:02.701Z,102580.94
2023-05-19T11:50:31.429Z,102582.56
2023-05-19T11:53:00.305Z,102588.34
2023-05-19T11:55:27.438Z,102588.66
2023-05-19T11:58:03.924Z,102584.84
2023-05-19T12:00:39.261Z,102579.34
2023-05-19T12:03:06.564Z,102580.19
2023-05-19T12:05:39.976Z,102583.50
2023-05-19T12:08:08.829Z,102585.97
2023-05-19T12:10:35.848Z,102586.84
2023-05-19T12:13:03.084Z,102583.25
2023-05-19T12:15:31.670Z,102588.75
2023-05-19T12:18:00.290Z,102582.72
2023-05-19T12:20:28.591Z,102582.44
2023-05-19T12:22:56.280Z,102576.97
2023-05-19T12:25:23.480Z,102582.13
2023-05-19T12:27:52.592Z,102579.41
2023-05-19T12:30:26.579Z,102576.66
2023-05-19T12:32:54.378Z,102576.97
2023-05-19T12:35:23.257Z,102581.34
2023-05-19T12:37:50.650Z,102567.63
2023-05-19T12:40:17.141Z,102556.66
2023-05-19T12:42:48.734Z,102559.97
2023-05-19T12:45:15.358Z,102557.50
2023-05-19T12:47:42.014Z,102561.91
2023-05-19T12:50:10.260Z,102560.31
2023-05-19T12:52:48.145Z,102545.50
2023-05-19T12:55:16.635Z,102545.50
2023-05-19T12:57:45.013Z,102557.84
2023-05-19T13:00:22.956Z,102548.81
2023-05-19T13:03:07.025Z,102537.31
2023-05-19T13:05:36.971Z,102547.19
2023-05-19T13:08:08.553Z,102545.00
2023-05-19T13:10:37.200Z,102540.06
2023-05-19T13:13:04.372Z,102538.66
2023-05-19T13:15:34.445Z,102538.41
2023-05-19T13:18:09.118Z,102547.19
2023-05-19T13:20:37.368Z,102539.78
2023-05-19T13:23:04.797Z,102549.09
2023-05-19T13:25:32.788Z,102543.34
2023-05-19T13:28:01.318Z,102541.97
2023-05-19T13:30:28.290Z,102537.56
2023-05-19T13:32:54.806Z,102530.72
2023-05-19T13:35:21.363Z,102529.34
2023-05-19T13:37:48.964Z,102534.03
2023-05-19T13:40:16.999Z,102521.41
2023-05-19T13:42:43.667Z,102519.47
2023-05-19T13:45:10.308Z,102520.31
2023-05-19T13:47:37.629Z,102513.19
2023-05-19T13:50:04.971Z,102502.47
2023-05-19T13:52:31.489Z,102498.09
2023-05-19T13:54:57.924Z,102509.88
2023-05-19T13:57:26.251Z,102508.78
2023-05-19T14:00:01.786Z,102506.59
2023-05-19T14:02:30.507Z,102509.88
2023-05-19T14:04:57.526Z,102506.59
2023-05-19T14:07:24.247Z,102499.47
2023-05-19T14:09:51.952Z,102508.78
2023-05-19T14:12:18.676Z,102504.41
2023-05-19T14:14:45.719Z,102507.69
2023-05-19T14:17:12.178Z,102504.41
2023-05-19T14:19:38.619Z,102503.84
2023-05-19T14:22:05.199Z,102491.78
2023-05-19T14:24:31.757Z,102484.09
2023-05-19T14:26:58.200Z,102484.38
2023-05-19T14:29:24.591Z,102491.75
2023-05-19T14:31:51.070Z,102489.00
2023-05-19T14:34:21.040Z,102486.81
2023-05-19T14:36:49.027Z,102487.63
2023-05-19T14:39:15.734Z,102479.13
2023-05-19T14:41:42.199Z,102479.66
2023-05-19T14:44:11.690Z,102485.16
2023-05-19T14:46:38.191Z,102476.13
2023-05-19T14:49:06.517Z,102484.06
2023-05-19T14:51:33.058Z,102474.72
2023-05-19T14:54:00.480Z,102469.78
2023-05-19T14:56:27.076Z,102465.38
2023-05-19T14:58:53.586Z,102469.78
2023-05-19T15:01:20.076Z,102464.84
2023-05-19T15:03:46.775Z,102469.78
2023-05-19T15:06:13.282Z,102468.97
2023-05-19T15:08:41.082Z,102478.53
2023-05-19T15:11:07.904Z,102475.25
2023-05-19T15:13:34.410Z,102479.66
2023-05-19T15:16:15.383Z,102471.97
2023-05-19T15:18:42.494Z,102459.34
2023-05-19T15:21:08.949Z,102460.75
2023-05-19T15:23:35.410Z,102454.97
2023-05-19T15:26:01.949Z,102459.91
2023-05-19T15:28:28.388Z,102456.34
2023-05-19T15:30:54.920Z,102456.88
2023-05-19T15:33:21.314Z,102452.50
2023-05-19T15:35:51.583Z,102460.44
2023-05-19T15:38:21.266Z,102455.50
2023-05-19T15:40:47.806Z,102460.75
2023-05-19T15:43:14.750Z,102451.13
2023-05-19T15:45:41.461Z,102457.16
2023-05-19T15:48:08.357Z,102447.25
2023-05-19T15:50:35.566Z,102450.53
2023-05-19T15:53:02.381Z,102441.22
2023-05-19T15:55:28.901Z,102435.72
2023-05-19T15:57:55.320Z,102437.91
2023-05-19T16:00:21.754Z,102441.75
2023-05-19T16:02:48.302Z,102438.72
2023-05-19T16:05:14.859Z,102446.41
2023-05-19T16:07:42.104Z,102438.75
2023-05-19T16:10:09.085Z,102437.13
2023-05-19T16:12:36.638Z,102439.88
2023-05-19T16:15:03.441Z,102430.03
2023-05-19T16:17:29.956Z,102422.59
2023-05-19T16:19:56.574Z,102414.38
2023-05-19T16:22:24.809Z,102425.38
2023-05-19T16:24:52.280Z,102428.66
2023-05-19T16:27:18.909Z,102419.31
2023-05-19T16:29:45.414Z,102412.19
2023-05-19T16:32:12.326Z,102409.44
2023-05-19T16:34:38.882Z,102407.00
2023-05-19T16:37:05.500Z,102417.69
2023-05-19T16:39:32.023Z,102425.38
2023-05-19T16:41:58.449Z,102414.69
2023-05-19T16:44:25.779Z,102415.25
2023-05-19T16:46:52.224Z,102422.38
2023-05-19T16:49:18.727Z,102422.69
2023-05-19T16:51:46.206Z,102425.44
2023-05-19T16:54:13.920Z,102422.94
2023-05-19T16:56:40.429Z,102419.94
2023-05-19T16:59:07.715Z,102418.31
2023-05-19T17:01:34.206Z,102421.59
2023-05-19T17:04:00.712Z,102416.91
2023-05-19T17:06:27.200Z,102421.28
2023-05-19T17:08:53.738Z,102419.09
2023-05-19T17:11:20.200Z,102425.16
2023-05-19T17:13:46.918Z,102424.06
2023-05-19T17:16:13.512Z,102425.44
2023-05-19T17:18:40.085Z,102430.94
2023-05-19T17:21:06.709Z,102425.44
2023-05-19T17:23:33.227Z,102420.22
2023-05-19T17:25:59.770Z,102421.31
2023-05-19T17:28:26.192Z,102419.41
2023-05-19T17:30:52.627Z,102428.75
2023-05-19T17:33:19.235Z,102426.81
2023-05-19T17:35:45.711Z,102420.50
2023-05-19T17:38:12.142Z,102429.28
2023-05-19T17:40:40.673Z,102426.00
2023-05-19T17:43:08.673Z,102423.25
2023-05-19T17:45:35.118Z,102431.47
2023-05-19T17:48:01.776Z,102428.19
2023-05-19T17:50:28.554Z,102434.78
2023-05-19T17:52:56.127Z,102429.28
2023-05-19T17:55:24.765Z,102432.03
2023-05-19T17:57:51.383Z,102429.28
2023-05-19T18:00:18.602Z,102425.72
2023-05-19T18:02:45.411Z,102433.13
2023-05-19T18:05:12.686Z,102432.56
2023-05-19T18:07:40.209Z,102434.78
2023-05-19T18:10:08.205Z,102434.72
2023-05-19T18:12:34.703Z,102440.22
2023-05-19T18:15:01.283Z,102448.72
2023-05-19T18:17:27.870Z,102441.59
2023-05-19T18:19:54.662Z,102441.84
2023-05-19T18:22:21.258Z,102445.13
2023-05-19T18:24:47.707Z,102450.59
2023-05-19T18:27:14.134Z,102448.69
2023-05-19T18:29:40.554Z,102441.56
2023-05-19T18:32:07.418Z,102441.28
2023-05-19T18:34:33.945Z,102451.13
2023-05-19T18:37:00.377Z,102450.03
2023-05-19T18:39:29.163Z,102457.97
2023-05-19T18:41:55.932Z,102455.47
2023-05-19T18:44:22.349Z,102447.81
2023-05-19T18:46:48.814Z,102461.50
2023-05-19T18:49:15.680Z,102451.66
2023-05-19T18:51:42.496Z,102462.59
2023-05-19T18:54:09.028Z,102467.19
2023-05-19T18:56:35.652Z,102460.91
2023-05-19T18:59:02.087Z,102460.63
2023-05-19T19:01:28.731Z,102461.97
2023-05-19T19:03:55.271Z,102461.13
2023-05-19T19:06:23.025Z,102457.81
2023-05-19T19:08:49.770Z,102466.84
2023-05-19T19:11:16.215Z,102467.91
2023-05-19T19:13:43.589Z,102469.78
2023-05-19T19:16:10.713Z,102470.88
2023-05-19T19:18:37.182Z,102469.75
2023-05-19T19:21:05.688Z,102470.81
2023-05-19T19:23:32.585Z,102469.72
2023-05-19T19:25:59.105Z,102485.28
2023-05-19T19:28:25.794Z,102477.03
2023-05-19T19:30:52.274Z,102485.22
2023-05-19T19:33:18.815Z,102487.34
2023-05-19T19:35:46.909Z,102489.50
2023-05-19T19:38:13.769Z,102494.69
2023-05-19T19:40:40.238Z,102493.25
2023-05-19T19:43:06.701Z,102496.50
2023-05-19T19:45:34.721Z,102496.44
2023-05-19T19:48:01.764Z,102509.50
2023-05-19T19:50:28.395Z,102514.88
2023-05-19T19:52:54.878Z,102512.09
2023-05-19T19:55:21.622Z,102512.28
2023-05-19T19:57:49.466Z,102517.44
2023-05-19T20:00:16.601Z,102518.25
2023-05-19T20:02:55.880Z,102519.28
2023-05-19T20:05:29.736Z,102527.13
2023-05-19T20:07:56.242Z,102526.00
2023-05-19T20:10:22.715Z,102525.34
2023-05-19T20:12:50.552Z,102526.41
2023-05-19T20:15:17.267Z,102528.28
2023-05-19T20:17:43.733Z,102532.28
2023-05-19T20:20:12.271Z,102531.06
2023-05-19T20:22:39.186Z,102532.66
2023-05-19T20:25:06.230Z,102544.84
2023-05-19T20:27:32.724Z,102548.84
2023-05-19T20:29:59.150Z,102548.34
2023-05-19T20:32:25.649Z,102537.75
2023-05-19T20:34:52.168Z,102531.00
2023-05-19T20:37:18.596Z,102545.56
2023-05-19T20:39:45.075Z,102548.59
2023-05-19T20:42:11.522Z,102549.72
2023-05-19T20:44:37.969Z,102548.91
2023-05-19T20:47:04.834Z,102553.88
2023-05-19T20:49:31.244Z,102558.81
2023-05-19T20:51:57.711Z,102552.22
2023-05-19T20:54:24.158Z,102556.84
2023-05-19T20:56:51.701Z,102560.66
2023-05-19T20:59:18.248Z,102559.56
2023-05-19T21:01:45.962Z,102556.84
2023-05-19T21:04:12.541Z,102557.91
2023-05-19T21:06:39.064Z,102562.31
2023-05-19T21:09:06.837Z,102559.56
2023-05-19T21:11:34.015Z,102550.25
2023-05-19T21:14:06.276Z,102562.00
2023-05-19T21:16:34.053Z,102559.50
2023-05-19T21:19:01.794Z,102567.38
2023-05-19T21:21:28.405Z,102571.44
2023-05-19T21:23:54.862Z,102567.06
2023-05-19T21:26:22.062Z,102576.09
2023-05-19T21:28:48.631Z,102574.09
2023-05-19T21:31:15.331Z,102579.56
2023-05-19T21:33:41.777Z,102580.06
2023-05-19T21:36:08.345Z,102584.41
2023-05-19T21:38:34.836Z,102578.94
2023-05-19T21:41:01.282Z,102578.59
2023-05-19T21:43:27.723Z,102586.47
2023-05-19T21:45:54.108Z,102587.56
2023-05-19T21:48:21.422Z,102590.22
2023-05-19T21:50:53.596Z,102588.00
2023-05-19T21:53:20.344Z,102586.34
2023-05-19T21:55:46.884Z,102590.38
2023-05-19T21:58:13.361Z,102592.53
2023-05-19T22:00:40.501Z,102593.03
2023-05-19T22:03:07.363Z,102603.13
2023-05-19T22:05:35.256Z,102590.72
2023-05-19T22:08:01.904Z,102589.06
2023-05-19T22:10:28.337Z,102594.53
2023-05-19T22:12:54.733Z,102592.06
2023-05-19T22:15:21.154Z,102586.59
2023-05-19T22:17:47.650Z,102593.72
2023-05-19T22:20:14.076Z,102584.94
2023-05-19T22:22:40.765Z,102586.75
2023-05-19T22:25:07.866Z,102585.38
2023-05-19T22:27:34.283Z,102587.50
2023-05-19T22:30:00.941Z,102586.69
2023-05-19T22:32:27.489Z,102587.44
2023-05-19T22:34:54.085Z,102594.22
2023-05-19T22:37:22.785Z,102590.25
2023-05-19T22:39:49.232Z,102588.03
2023-05-19T22:42:15.804Z,102585.53
2023-05-19T22:44:43.325Z,102587.66
2023-05-19T22:47:13.430Z,102590.91
2023-05-19T22:49:41.138Z,102585.94
2023-05-19T22:52:09.771Z,102591.88
2023-05-19T22:54:36.854Z,102598.41
2023-05-19T22:57:03.662Z,102601.63
2023-05-19T22:59:30.173Z,102593.94
2023-05-19T23:01:56.684Z,102597.13
2023-05-19T23:04:23.206Z,102593.81
2023-05-19T23:06:50.061Z,102592.75
2023-05-19T23:09:17.914Z,102595.63
2023-05-19T23:11:44.885Z,102595.28
2023-05-19T23:14:11.347Z,102601.25
2023-05-19T23:16:37.861Z,102593.28
2023-05-19T23:19:04.356Z,102585.88
2023-05-19T23:21:32.441Z,102586.84
2023-05-19T23:23:59.432Z,102588.41
2023-05-19T23:26:26.923Z,102586.16
2023-05-19T23:28:53.405Z,102594.81
2023-05-19T23:31:20.191Z,102590.34
2023-05-19T23:33:46.754Z,102589.75
2023-05-19T23:36:13.480Z,102586.44
2023-05-19T23:38:39.983Z,102587.63
2023-05-19T23:41:06.420Z,102592.75
2023-05-19T23:43:32.995Z,102579.63
2023-05-19T23:46:00.219Z,102583.41
2023-05-19T23:48:30.402Z,102582.00
2023-05-19T23:50:59.896Z,102580.59
2023-05-19T23:53:26.464Z,102581.06
2023-05-19T23:55:52.941Z,102582.13
2023-05-19T23:58:19.416Z,102580.47
